Time;durP1;ratioP1;P1;durP2;ratioP2;P2;SDS_P1;SDS_P2;PMS_P1;PMS_P2;Temp;Humidity;BMP_temperature;BMP_pressure;BME280_temperature;BME280_humidity;BME280_pressure;Samples;Min_cycle;Max_cycle;Signal;HPM_P1;HPM_P2
2023/06/29 00:00:13;;;;;;;6.40;5.70;;;;;;;16.86;75.41;98871.66;223585;181;138465;-65
2023/06/29 00:05:37;;;;;;;7.20;5.20;;;;;;;16.84;75.73;98884.56;223687;181;137094;-65
2023/06/29 00:10:41;;;;;;;8.40;5.60;;;;;;;16.86;75.85;98886.74;223751;180;145270;-67
2023/06/29 00:15:45;;;;;;;10.10;6.40;;;;;;;16.93;75.84;98889.81;223718;181;138394;-69
2023/06/29 00:20:51;;;;;;;9.00;7.00;;;;;;;16.96;75.83;98888.00;223781;181;137082;-65
2023/06/29 00:25:56;;;;;;;8.70;6.90;;;;;;;16.96;75.81;98882.80;223790;181;145346;-70
2023/06/29 00:30:59;;;;;;;7.70;6.30;;;;;;;16.94;75.82;98884.71;223664;181;138920;-65
2023/06/29 00:36:03;;;;;;;7.30;6.50;;;;;;;16.96;75.95;98889.92;223671;181;137885;-64
2023/06/29 00:41:06;;;;;;;9.10;7.10;;;;;;;17.03;75.87;98892.73;223761;181;145676;-63
2023/06/29 00:46:12;;;;;;;10.00;7.80;;;;;;;17.06;75.57;98888.27;223658;181;140678;-63
2023/06/29 00:51:16;;;;;;;11.90;8.70;;;;;;;17.05;75.49;98877.30;223773;180;136604;-62
2023/06/29 00:56:19;;;;;;;10.10;7.50;;;;;;;17.04;75.48;98867.88;223698;181;145339;-62
2023/06/29 01:01:23;;;;;;;12.80;7.80;;;;;;;17.02;75.38;98864.27;223681;181;138438;-62
2023/06/29 01:06:31;;;;;;;10.60;7.80;;;;;;;17.05;75.33;98856.89;223651;181;137574;-64
2023/06/29 01:11:37;;;;;;;11.30;8.30;;;;;;;17.07;75.21;98853.96;223672;181;145592;-66
2023/06/29 01:16:42;;;;;;;15.10;9.60;;;;;;;17.06;75.08;98854.95;223693;181;138188;-62
2023/06/29 01:21:54;;;;;;;9.30;8.00;;;;;;;17.02;75.10;98852.30;223716;181;137618;-63
2023/06/29 01:27:03;;;;;;;12.40;9.20;;;;;;;17.03;75.13;98850.54;223660;181;145142;-64
2023/06/29 01:32:10;;;;;;;11.30;8.90;;;;;;;17.08;75.14;98851.20;223715;181;138703;-63
2023/06/29 01:37:21;;;;;;;15.60;9.80;;;;;;;17.07;74.97;98853.45;223726;181;137147;-63
2023/06/29 01:42:25;;;;;;;12.10;9.40;;;;;;;17.01;74.96;98856.29;223760;181;146243;-63
2023/06/29 01:47:30;;;;;;;12.70;9.50;;;;;;;16.94;75.04;98866.43;223650;181;138220;-63
2023/06/29 01:52:33;;;;;;;14.90;9.60;;;;;;;16.92;75.25;98866.23;223722;181;137955;-66
2023/06/29 01:57:37;;;;;;;12.70;9.40;;;;;;;16.97;75.32;98875.35;223665;181;146082;-68
2023/06/29 02:02:41;;;;;;;12.70;9.40;;;;;;;16.98;75.09;98869.27;223833;181;138631;-68
2023/06/29 02:07:46;;;;;;;;;;;;;;;16.95;75.01;98873.65;223688;181;137038;-68
2023/06/29 02:12:49;;;;;;;13.40;10.60;;;;;;;16.90;75.15;98872.60;223780;181;145002;-67
2023/06/29 02:17:54;;;;;;;12.20;9.40;;;;;;;16.86;75.32;98877.42;223712;181;139362;-69
2023/06/29 02:22:57;;;;;;;11.40;9.20;;;;;;;16.86;75.56;98882.58;223730;181;139168;-68
2023/06/29 02:28:00;;;;;;;15.60;10.80;;;;;;;16.90;75.54;98891.21;223761;181;148377;-69
2023/06/29 02:33:03;;;;;;;14.20;11.00;;;;;;;16.92;75.58;98897.87;223834;181;138641;-69
2023/06/29 02:38:07;;;;;;;18.00;12.00;;;;;;;16.95;75.69;98898.08;223671;181;137711;-67
2023/06/29 02:43:10;;;;;;;13.70;10.00;;;;;;;16.97;75.68;98891.81;223763;181;147181;-68
2023/06/29 02:48:14;;;;;;;20.00;11.00;;;;;;;16.98;75.57;98889.91;223757;181;138319;-66
2023/06/29 02:53:17;;;;;;;16.00;11.60;;;;;;;16.99;75.65;98897.49;223784;181;137914;-65
2023/06/29 02:58:21;;;;;;;17.50;11.70;;;;;;;17.05;75.51;98898.97;223734;181;145962;-66
2023/06/29 03:03:25;;;;;;;15.70;12.20;;;;;;;17.06;75.51;98897.67;223768;181;138637;-66
2023/06/29 03:13:14;;;;;;;16.80;11.70;;;;;;;17.08;75.84;98901.60;221974;193;665669;-68
2023/06/29 03:18:17;;;;;;;60.10;49.40;;;;;;;17.11;75.85;98911.17;223665;183;140741;-67
2023/06/29 03:23:20;;;;;;;15.60;11.70;;;;;;;17.19;76.00;98913.98;223635;183;143340;-67
2023/06/29 03:28:23;;;;;;;16.10;12.70;;;;;;;17.33;75.85;98914.17;223777;182;138935;-68
2023/06/29 03:33:27;;;;;;;16.70;11.50;;;;;;;17.41;75.67;98912.21;223714;182;139653;-68
2023/06/29 03:38:33;;;;;;;136.10;111.90;;;;;;;17.50;75.30;98919.88;223877;182;143842;-68
2023/06/29 03:43:36;;;;;;;17.40;13.80;;;;;;;17.57;74.99;98924.16;223785;183;138698;-70
2023/06/29 03:48:39;;;;;;;16.40;13.00;;;;;;;17.56;74.73;98926.04;223810;182;136830;-70
2023/06/29 03:53:43;;;;;;;21.40;14.00;;;;;;;17.51;74.90;98927.00;223712;182;144124;-65
2023/06/29 03:58:46;;;;;;;14.50;11.90;;;;;;;17.47;75.08;98934.25;223683;182;138131;-65
2023/06/29 04:03:50;;;;;;;14.60;12.00;;;;;;;17.46;75.27;98935.41;223631;182;137882;-63
2023/06/29 04:08:54;;;;;;;15.00;12.60;;;;;;;17.49;75.25;98934.16;223780;182;145452;-66
2023/06/29 04:13:57;;;;;;;19.20;13.90;;;;;;;17.56;75.33;98937.84;223694;182;140567;-65
2023/06/29 04:19:00;;;;;;;16.80;14.10;;;;;;;17.56;75.18;98936.61;223702;182;136589;-66
2023/06/29 04:24:04;;;;;;;17.80;12.40;;;;;;;17.51;75.25;98938.49;223714;182;145522;-65
2023/06/29 04:29:07;;;;;;;16.80;13.10;;;;;;;17.54;75.35;98938.26;223675;182;140462;-65
2023/06/29 04:34:10;;;;;;;18.50;14.90;;;;;;;17.60;75.29;98947.35;223693;183;140574;-66
2023/06/29 04:39:14;;;;;;;23.10;15.30;;;;;;;17.68;75.18;98950.61;223676;183;145899;-67
2023/06/29 04:44:21;;;;;;;19.30;14.50;;;;;;;17.68;74.85;98957.36;223798;181;138422;-66
2023/06/29 04:49:27;;;;;;;19.30;13.80;;;;;;;17.66;75.08;98954.83;223764;181;136874;-67
2023/06/29 04:54:30;;;;;;;18.30;12.80;;;;;;;17.70;75.04;98962.39;223736;181;145375;-69
2023/06/29 05:13:20;;;;;;;17.80;13.70;;;;;;;17.82;74.86;98975.34;221505;193;665909;-65
2023/06/29 05:18:24;;;;;;;19.30;13.80;;;;;;;17.82;74.85;98968.48;223259;186;137321;-63
2023/06/29 05:23:29;;;;;;;20.30;14.70;;;;;;;17.87;74.98;98969.48;223701;182;143278;-63
2023/06/29 05:28:35;;;;;;;18.80;16.00;;;;;;;17.93;74.94;98964.40;223764;183;138449;-66
2023/06/29 05:33:38;;;;;;;25.20;16.90;;;;;;;17.96;74.79;98969.83;223808;182;137272;-65
2023/06/29 05:38:41;;;;;;;21.10;14.50;;;;;;;17.99;74.70;98972.81;223781;183;144051;-66
2023/06/29 05:43:45;;;;;;;20.50;14.40;;;;;;;18.05;74.62;98976.76;223728;183;138503;-63
2023/06/29 05:48:48;;;;;;;20.90;14.50;;;;;;;18.17;74.53;98979.35;223802;183;137648;-65
2023/06/29 05:53:52;;;;;;;20.30;15.30;;;;;;;18.23;74.19;98984.45;223855;182;144184;-64
2023/06/29 05:58:55;;;;;;;21.80;15.40;;;;;;;18.28;74.00;98983.73;223835;182;138440;-66
2023/06/29 06:03:58;;;;;;;15.80;10.30;;;;;;;18.32;74.09;98983.74;223674;182;137093;-66
2023/06/29 06:09:02;;;;;;;12.70;9.20;;;;;;;18.34;72.93;98983.71;223727;182;146861;-66
2023/06/29 06:14:05;;;;;;;18.70;11.20;;;;;;;18.43;72.49;98986.60;223691;182;138347;-67
2023/06/29 06:19:09;;;;;;;19.00;12.90;;;;;;;18.51;72.39;98984.94;223781;182;136333;-66
2023/06/29 06:24:12;;;;;;;22.10;13.70;;;;;;;18.53;72.44;98978.29;223578;183;145669;-67
2023/06/29 06:29:15;;;;;;;14.90;11.80;;;;;;;18.51;72.27;98989.11;223597;182;139516;-68
2023/06/29 06:34:19;;;;;;;16.90;12.70;;;;;;;18.49;72.02;98985.88;223731;182;138706;-67
2023/06/29 06:39:22;;;;;;;19.70;13.30;;;;;;;18.53;72.15;98986.98;223721;182;144940;-66
2023/06/29 06:44:26;;;;;;;17.70;13.30;;;;;;;18.63;72.31;98988.30;223711;182;139076;-66
2023/06/29 06:49:29;;;;;;;18.80;12.30;;;;;;;18.67;71.96;98986.27;223750;182;137192;-67
2023/06/29 06:54:32;;;;;;;18.70;10.50;;;;;;;18.70;72.10;98985.85;223553;183;145250;-66
2023/06/29 06:59:35;;;;;;;16.50;11.50;;;;;;;18.83;72.00;98979.90;223619;182;138774;-66
2023/06/29 07:04:39;;;;;;;17.30;10.40;;;;;;;18.94;71.35;98977.83;223687;182;137180;-71
2023/06/29 07:13:13;;;;;;;15.60;10.80;;;;;;;18.99;70.47;98978.85;221965;193;665899;-68
2023/06/29 07:18:17;;;;;;;16.70;10.70;;;;;;;19.03;70.57;98976.90;223425;185;139287;-66
2023/06/29 07:23:20;;;;;;;14.80;10.80;;;;;;;19.10;70.38;98974.23;223316;185;143291;-65
2023/06/29 07:28:26;;;;;;;16.70;10.60;;;;;;;19.12;69.85;98975.41;223319;182;140034;-65
2023/06/29 07:33:30;;;;;;;14.90;10.50;;;;;;;19.26;70.09;98976.73;223692;183;138320;-65
2023/06/29 07:38:37;;;;;;;11.60;10.00;;;;;;;19.31;69.35;98980.45;223696;182;145104;-68
2023/06/29 07:43:45;;;;;;;13.30;10.10;;;;;;;19.27;68.76;98977.90;223751;182;139460;-70
2023/06/29 07:48:54;;;;;;;13.70;9.60;;;;;;;19.29;68.99;98978.78;223741;182;136750;-65
2023/06/29 07:54:00;;;;;;;17.20;9.90;;;;;;;19.41;68.91;98979.45;223744;182;143411;-64
2023/06/29 07:59:04;;;;;;;13.90;10.90;;;;;;;19.52;68.62;98980.41;223647;182;138792;-67
2023/06/29 08:04:08;;;;;;;13.30;10.20;;;;;;;19.59;68.05;98977.92;223497;181;136508;-67
2023/06/29 08:09:12;;;;;;;15.00;10.00;;;;;;;19.64;67.91;98981.87;223793;182;145604;-71
2023/06/29 08:14:16;;;;;;;12.10;8.50;;;;;;;19.75;67.80;98980.59;223637;183;138820;-68
2023/06/29 08:19:20;;;;;;;12.80;8.90;;;;;;;19.92;67.42;98976.99;223691;182;137259;-66
2023/06/29 08:24:24;;;;;;;14.50;10.00;;;;;;;20.04;66.61;98977.00;223596;182;146209;-66
2023/06/29 08:29:27;;;;;;;19.60;10.20;;;;;;;20.02;65.45;98985.15;223691;182;138548;-65
2023/06/29 08:34:31;;;;;;;15.50;10.20;;;;;;;19.99;65.20;98983.30;223625;183;136991;-69
2023/06/29 08:39:34;;;;;;;13.70;10.40;;;;;;;20.09;64.87;98983.06;223757;182;146522;-69
2023/06/29 08:44:37;;;;;;;10.20;9.10;;;;;;;20.18;64.29;98981.05;223814;182;138984;-66
2023/06/29 08:49:42;;;;;;;10.90;9.70;;;;;;;20.29;64.62;98983.34;223720;182;136954;-66
2023/06/29 08:54:47;;;;;;;9.50;8.10;;;;;;;20.43;64.63;98978.77;223738;182;145533;-67
2023/06/29 08:59:51;;;;;;;16.90;8.50;;;;;;;20.60;63.54;98973.77;223737;182;138399;-66
2023/06/29 09:04:55;;;;;;;12.70;9.40;;;;;;;20.71;63.11;98974.27;223749;182;136476;-66
2023/06/29 09:09:59;;;;;;;13.00;9.30;;;;;;;20.85;62.67;98975.66;223824;182;145323;-66
2023/06/29 09:15:18;;;;;;;11.30;9.20;;;;;;;20.88;61.27;98973.95;223644;182;138356;-64
2023/06/29 09:20:21;;;;;;;11.80;8.90;;;;;;;20.92;61.52;98970.27;223696;182;136663;-64
2023/06/29 09:25:26;;;;;;;10.30;8.10;;;;;;;20.98;60.95;98968.34;223809;182;145768;-68
2023/06/29 09:30:38;;;;;;;11.80;8.80;;;;;;;21.07;60.76;98967.09;223656;182;138447;-67
2023/06/29 09:35:50;;;;;;;10.50;7.60;;;;;;;21.21;60.83;98962.84;223649;182;136939;-69
2023/06/29 09:40:54;;;;;;;8.30;7.00;;;;;;;21.32;59.56;98968.14;223544;182;145967;-66
2023/06/29 09:46:12;;;;;;;9.40;6.90;;;;;;;21.40;59.47;98960.38;223659;182;138240;-66
2023/06/29 09:51:22;;;;;;;12.70;9.40;;;;;;;21.49;59.55;98957.78;223718;182;137168;-68
2023/06/29 09:56:27;;;;;;;11.40;8.20;;;;;;;21.63;59.12;98958.15;223579;182;146211;-66
2023/06/29 10:01:30;;;;;;;9.00;7.00;;;;;;;21.77;58.65;98957.81;223420;183;140865;-64
2023/06/29 10:06:46;;;;;;;9.80;7.10;;;;;;;21.91;58.55;98955.79;223713;182;136984;-67
2023/06/29 10:11:53;;;;;;;7.80;6.80;;;;;;;22.03;57.56;98951.58;223568;182;145148;-65
2023/06/29 10:16:57;;;;;;;12.50;7.30;;;;;;;22.19;57.39;98947.41;223633;182;138441;-64
2023/06/29 10:22:10;;;;;;;12.80;8.00;;;;;;;22.37;57.18;98942.30;223717;182;136580;-62
2023/06/29 10:27:15;;;;;;;10.70;7.30;;;;;;;22.28;57.26;98948.05;223752;183;146640;-67
2023/06/29 10:32:34;;;;;;;;;;;;;;;22.05;56.94;98954.59;223743;182;139979;-63
2023/06/29 10:37:41;;;;;;;13.70;10.10;;;;;;;22.00;57.66;98948.44;223764;182;130337;-68
2023/06/29 10:42:50;;;;;;;9.70;8.30;;;;;;;22.20;57.33;98943.48;223690;183;145331;-66
2023/06/29 10:47:53;;;;;;;9.00;8.10;;;;;;;22.19;56.97;98942.29;223657;183;138272;-63
2023/06/29 10:53:01;;;;;;;11.60;8.50;;;;;;;22.45;56.64;98928.63;223630;182;136694;-64
2023/06/29 10:58:28;;;;;;;9.70;8.10;;;;;;;22.78;55.91;98922.67;223648;183;145852;-64
2023/06/29 11:03:56;;;;;;;9.00;6.80;;;;;;;23.09;54.76;98928.63;223560;183;138883;-66
2023/06/29 11:09:10;;;;;;;10.40;8.00;;;;;;;23.03;53.83;98928.63;223735;182;137338;-65
2023/06/29 11:14:17;;;;;;;10.60;7.40;;;;;;;23.15;54.21;98924.41;223620;183;145695;-64
2023/06/29 11:19:25;;;;;;;;;;;;;;;23.48;53.84;98921.59;223597;182;138402;-64
2023/06/29 11:24:29;;;;;;;9.00;6.40;;;;;;;23.52;52.74;98923.70;223629;182;128960;-65
2023/06/29 11:29:33;;;;;;;14.70;6.70;;;;;;;23.76;52.38;98919.16;223686;183;145374;-66
2023/06/29 11:34:36;;;;;;;11.00;6.90;;;;;;;24.05;51.82;98915.20;223586;182;138824;-66
2023/06/29 11:39:39;;;;;;;8.80;7.10;;;;;;;24.28;50.77;98913.82;223621;183;140256;-64
2023/06/29 11:44:43;;;;;;;11.70;8.10;;;;;;;24.51;50.20;98915.41;223792;182;145355;-64
2023/06/29 11:49:50;;;;;;;10.80;8.90;;;;;;;24.73;49.52;98906.77;223694;182;140445;-63
2023/06/29 11:54:54;;;;;;;11.90;8.20;;;;;;;24.94;48.59;98904.54;223717;183;138140;-65
2023/06/29 12:00:08;;;;;;;9.40;6.90;;;;;;;25.13;47.97;98899.56;223651;183;146041;-62
2023/06/29 12:05:16;;;;;;;9.70;7.30;;;;;;;25.32;47.49;98892.85;223775;183;138174;-65
2023/06/29 12:10:20;;;;;;;8.40;7.00;;;;;;;25.45;47.25;98886.86;223686;182;137162;-67
2023/06/29 12:15:24;;;;;;;;;;;;;;;25.68;46.97;98879.98;223707;182;145927;-64
2023/06/29 12:20:36;;;;;;;7.80;7.00;;;;;;;25.85;45.61;98872.40;223733;183;138274;-67
2023/06/29 12:25:48;;;;;;;9.30;6.60;;;;;;;26.03;45.49;98864.61;223661;183;136515;-66
2023/06/29 12:30:51;;;;;;;7.70;6.00;;;;;;;26.29;45.41;98858.29;223584;183;146176;-64
2023/06/29 12:35:57;;;;;;;7.50;6.20;;;;;;;26.48;43.72;98856.31;223721;182;138314;-65
2023/06/29 12:41:31;;;;;;;6.40;5.70;;;;;;;26.73;43.33;98848.88;221992;192;666004;-64
2023/06/29 12:46:37;;;;;;;7.20;5.70;;;;;;;27.04;43.26;98841.46;223354;183;135867;-65
2023/06/29 12:51:40;;;;;;;7.20;5.70;;;;;;;27.31;42.30;98844.33;223583;183;144138;-65
2023/06/29 12:56:45;;;;;;;6.50;5.80;;;;;;;27.31;42.30;98834.96;223536;183;138897;-68
2023/06/29 13:01:48;;;;;;;;;;;;;;;27.54;41.29;98826.57;223652;181;136580;-62
2023/06/29 13:06:53;;;;;;;5.70;5.10;;;;;;;27.70;40.09;98824.37;223887;189;143403;-63
2023/06/29 13:12:00;;;;;;;5.80;4.70;;;;;;;27.89;39.21;98815.77;223641;182;138836;-65
2023/06/29 13:17:04;;;;;;;6.00;5.00;;;;;;;28.08;38.92;98804.08;223295;181;136370;-66
2023/06/29 13:22:08;;;;;;;8.20;5.30;;;;;;;28.28;38.59;98804.44;223691;181;143462;-66
2023/06/29 13:27:11;;;;;;;5.00;4.50;;;;;;;28.40;38.02;98798.66;223753;214;139515;-64
2023/06/29 13:32:15;;;;;;;21.80;15.80;;;;;;;28.52;36.81;98801.61;223707;181;137177;-67
2023/06/29 13:37:18;;;;;;;195.00;173.90;;;;;;;28.51;37.06;98798.66;223558;178;146868;-72
2023/06/29 13:42:22;;;;;;;8.50;7.00;;;;;;;28.16;37.18;98798.13;223558;180;140559;-64
2023/06/29 13:47:25;;;;;;;5.60;4.40;;;;;;;28.13;37.38;98794.23;223751;181;136465;-64
2023/06/29 13:52:29;;;;;;;7.30;4.00;;;;;;;28.20;36.90;98791.83;223455;182;145374;-62
2023/06/29 13:57:33;;;;;;;4.40;3.90;;;;;;;28.40;36.87;98784.47;223557;215;138438;-62
2023/06/29 14:02:37;;;;;;;4.20;3.50;;;;;;;28.53;36.26;98782.48;223639;181;137529;-63
2023/06/29 14:07:41;;;;;;;8.70;6.50;;;;;;;28.21;36.11;98780.80;222841;181;145415;-66
2023/06/29 14:12:44;;;;;;;4.70;4.20;;;;;;;27.99;36.83;98780.06;223519;182;138530;-65
2023/06/29 14:17:47;;;;;;;4.80;4.30;;;;;;;27.95;36.92;98770.90;223547;181;139306;-68
2023/06/29 14:22:51;;;;;;;4.90;4.00;;;;;;;27.84;37.14;98766.20;223741;181;145531;-66
2023/06/29 14:27:54;;;;;;;70.10;58.50;;;;;;;27.76;37.19;98765.95;223610;214;138850;-64
2023/06/29 14:32:57;;;;;;;8.00;5.10;;;;;;;27.55;37.92;98756.70;223552;193;138329;-65
2023/06/29 14:38:01;;;;;;;5.50;4.70;;;;;;;27.08;38.63;98752.80;223373;215;157677;-67
2023/06/29 14:43:16;;;;;;;5.30;4.30;;;;;;;26.81;39.53;98748.70;223669;186;138813;-65
2023/06/29 14:48:19;;;;;;;5.70;4.20;;;;;;;26.68;39.93;98749.44;223510;181;137395;-67
2023/06/29 14:53:23;;;;;;;9.70;6.40;;;;;;;26.43;40.00;98752.02;223569;181;145481;-67
2023/06/29 14:58:26;;;;;;;6.30;4.40;;;;;;;26.15;40.97;98748.66;223526;181;138542;-68
2023/06/29 15:03:30;;;;;;;5.70;4.30;;;;;;;26.01;41.39;98747.20;223653;214;136339;-66
2023/06/29 15:08:33;;;;;;;4.80;3.90;;;;;;;25.86;41.91;98744.94;223491;181;145286;-69
2023/06/29 15:13:36;;;;;;;4.80;4.20;;;;;;;25.80;42.74;98739.23;223578;181;138916;-65
2023/06/29 15:18:41;;;;;;;8.60;5.90;;;;;;;25.66;42.81;98745.58;223504;182;137746;-64
2023/06/29 15:24:01;;;;;;;8.00;4.60;;;;;;;25.57;43.04;98738.13;223332;181;145715;-71
2023/06/29 15:29:04;;;;;;;8.10;4.80;;;;;;;25.43;43.33;98736.30;223583;181;151188;-67
2023/06/29 15:34:08;;;;;;;7.20;4.60;;;;;;;25.31;43.83;98728.70;223611;181;138011;-68
2023/06/29 15:39:13;;;;;;;10.30;4.30;;;;;;;25.18;43.86;98726.52;223724;182;145358;-64
2023/06/29 15:44:20;;;;;;;17.60;14.70;;;;;;;25.10;44.59;98723.11;223531;181;138397;-64
2023/06/29 15:49:23;;;;;;;6.70;4.50;;;;;;;25.07;44.79;98724.86;223678;181;137419;-70
2023/06/29 15:54:26;;;;;;;77.90;69.40;;;;;;;25.00;44.89;98723.85;222593;182;144900;-67
2023/06/29 15:59:30;;;;;;;6.60;5.70;;;;;;;24.94;45.18;98716.30;223384;204;141974;-65
2023/06/29 16:04:33;;;;;;;5.60;4.60;;;;;;;24.89;45.50;98712.06;223398;182;137579;-66
2023/06/29 16:09:39;;;;;;;70.80;58.40;;;;;;;24.85;45.53;98706.95;223709;183;145391;-68
2023/06/29 16:14:42;;;;;;;102.10;82.70;;;;;;;24.90;45.80;98700.67;223438;181;140692;-67
2023/06/29 16:19:46;;;;;;;11.90;7.80;;;;;;;24.95;45.70;98695.15;223476;181;139386;-64
2023/06/29 16:24:49;;;;;;;5.20;4.40;;;;;;;24.97;45.51;98699.98;222805;181;145506;-69
2023/06/29 16:29:53;;;;;;;20.50;15.00;;;;;;;24.95;45.37;98697.70;223423;208;138298;-66
2023/06/29 16:34:56;;;;;;;5.10;4.60;;;;;;;24.88;45.34;98696.02;223644;181;137920;-70
2023/06/29 16:39:59;;;;;;;5.90;4.50;;;;;;;24.79;45.64;98689.10;223506;204;145403;-64
2023/06/29 16:45:03;;;;;;;7.90;4.80;;;;;;;24.75;45.93;98686.80;223480;183;276246;-69
2023/06/29 16:50:06;;;;;;;7.40;4.40;;;;;;;24.72;46.16;98688.06;223554;181;137201;-64
2023/06/29 16:55:10;;;;;;;6.90;4.60;;;;;;;24.70;46.28;98688.47;223607;181;145545;-68
2023/06/29 17:00:16;;;;;;;10.00;5.50;;;;;;;24.66;46.29;98687.54;223395;182;138150;-67
2023/06/29 17:05:19;;;;;;;6.90;4.60;;;;;;;24.66;46.43;98680.17;223322;181;138030;-67
2023/06/29 17:13:15;;;;;;;52.40;46.80;;;;;;;24.71;46.46;98678.96;219453;193;665911;-70
2023/06/29 17:18:18;;;;;;;8.40;5.30;;;;;;;24.66;46.34;98679.60;222007;183;136927;-68
2023/06/29 17:23:22;;;;;;;7.80;4.40;;;;;;;24.61;46.30;98683.55;223504;183;144083;-68
2023/06/29 17:28:25;;;;;;;47.90;40.80;;;;;;;24.55;46.61;98678.05;221366;183;139617;-71
2023/06/29 17:33:28;;;;;;;191.90;138.60;;;;;;;24.54;46.90;98682.02;222663;210;137805;-68
2023/06/29 17:38:48;;;;;;;7.00;5.90;;;;;;;24.52;46.89;98680.38;223438;183;143208;-66
2023/06/29 17:43:51;;;;;;;6.00;4.40;;;;;;;24.49;46.66;98679.02;223512;183;138293;-69
2023/06/29 17:48:54;;;;;;;7.40;4.30;;;;;;;24.46;46.97;98679.02;223507;183;136301;-70
2023/06/29 17:53:57;;;;;;;68.10;56.20;;;;;;;24.42;47.01;98678.48;223471;183;143763;-70
2023/06/29 17:59:06;;;;;;;7.40;5.20;;;;;;;24.38;47.15;98673.44;223408;184;140177;-67
2023/06/29 18:04:10;;;;;;;8.20;4.80;;;;;;;24.34;47.23;98673.69;223368;183;136518;-66
2023/06/29 18:13:13;;;;;;;10.80;8.70;;;;;;;24.30;47.51;98677.35;219812;191;666091;-69
2023/06/29 18:18:17;;;;;;;7.30;4.80;;;;;;;24.19;47.55;98679.39;223125;185;136291;-67
2023/06/29 18:23:23;;;;;;;7.00;3.90;;;;;;;24.16;47.56;98678.90;223256;185;143662;-65
2023/06/29 18:28:29;;;;;;;6.60;4.40;;;;;;;24.14;47.68;98679.58;223090;185;138385;-66
2023/06/29 18:33:33;;;;;;;129.20;114.10;;;;;;;24.13;47.70;98682.20;223215;185;136712;-64
2023/06/29 18:38:36;;;;;;;17.60;15.60;;;;;;;24.13;47.87;98680.82;223192;185;144846;-70
2023/06/29 18:43:39;;;;;;;9.10;5.50;;;;;;;24.10;47.87;98677.44;223435;183;138500;-68
2023/06/29 18:48:43;;;;;;;6.20;4.10;;;;;;;24.04;47.95;98681.46;223422;183;136552;-69
2023/06/29 18:53:48;;;;;;;7.10;4.30;;;;;;;23.97;48.18;98685.64;223489;183;143313;-67
2023/06/29 18:58:51;;;;;;;7.20;4.30;;;;;;;23.90;48.40;98691.58;223402;183;138888;-66
2023/06/29 19:03:55;;;;;;;7.80;4.60;;;;;;;23.81;48.51;98691.89;223560;181;136627;-66
2023/06/29 19:09:01;;;;;;;6.70;4.50;;;;;;;23.76;48.65;98697.59;223691;182;145017;-68
2023/06/29 19:14:15;;;;;;;6.90;4.40;;;;;;;23.71;48.71;98699.92;223426;182;138400;-67
2023/06/29 19:19:18;;;;;;;11.10;4.50;;;;;;;23.65;48.89;98695.71;223447;182;136413;-65
2023/06/29 19:24:22;;;;;;;6.50;4.50;;;;;;;23.61;48.91;98700.59;223417;215;145426;-65
2023/06/29 19:29:26;;;;;;;10.40;4.90;;;;;;;23.56;49.17;98700.43;223454;183;139165;-68
2023/06/29 19:34:30;;;;;;;9.30;5.10;;;;;;;23.47;49.72;98702.13;223413;181;136702;-65
2023/06/29 19:39:33;;;;;;;8.60;5.20;;;;;;;23.35;50.03;98703.47;223565;182;148106;-66
2023/06/29 19:44:36;;;;;;;10.80;5.90;;;;;;;23.29;50.17;98707.63;223585;181;138339;-67
2023/06/29 19:49:40;;;;;;;10.30;6.30;;;;;;;23.24;50.51;98709.05;223569;181;139041;-66
2023/06/29 19:54:47;;;;;;;7.40;4.60;;;;;;;23.20;50.72;98706.20;223618;181;146402;-66
2023/06/29 19:59:50;;;;;;;13.10;5.20;;;;;;;23.17;51.03;98715.63;223458;181;138096;-68
2023/06/29 20:04:53;;;;;;;9.90;5.60;;;;;;;23.09;51.45;98725.05;223699;181;136545;-71
2023/06/29 20:15:36;;;;;;;6.50;4.90;;;;;;;22.93;52.12;98734.19;221925;226;676878;-69
2023/06/29 20:20:39;;;;;;;8.00;5.40;;;;;;;22.86;52.59;98734.86;223328;184;136215;-70
2023/06/29 20:25:42;;;;;;;9.60;6.10;;;;;;;22.83;52.77;98731.79;223478;183;143180;-70
2023/06/29 20:30:46;;;;;;;14.30;6.70;;;;;;;22.77;53.05;98734.47;223446;182;138957;-69
2023/06/29 20:35:49;;;;;;;11.40;6.90;;;;;;;22.64;53.49;98732.91;223469;183;136443;-70
2023/06/29 20:40:53;;;;;;;13.70;6.70;;;;;;;22.54;54.24;98730.08;223486;182;143981;-71
2023/06/29 20:45:56;;;;;;;9.20;6.10;;;;;;;22.41;54.34;98729.80;223440;216;138261;-70
2023/06/29 20:50:59;;;;;;;10.20;6.60;;;;;;;22.30;54.70;98733.61;223454;182;136252;-71
2023/06/29 20:56:11;;;;;;;13.20;7.10;;;;;;;22.17;55.31;98734.20;223492;182;143909;-70
2023/06/29 21:01:17;;;;;;;10.10;6.90;;;;;;;22.04;55.70;98729.04;223453;182;139855;-70
2023/06/29 21:06:20;;;;;;;10.20;6.70;;;;;;;21.96;56.04;98730.24;223442;183;137501;-69
2023/06/29 21:11:24;;;;;;;10.00;6.60;;;;;;;21.82;57.01;98731.19;223450;216;145287;-69
2023/06/29 21:16:28;;;;;;;10.60;6.70;;;;;;;21.60;57.87;98731.45;223362;193;139176;-69
2023/06/29 21:21:31;;;;;;;12.50;7.10;;;;;;;21.41;58.57;98729.27;223460;216;137081;-70
2023/06/29 21:26:35;;;;;;;10.60;7.10;;;;;;;21.25;59.35;98734.66;223401;183;147431;-70
2023/06/29 21:31:41;;;;;;;10.20;6.90;;;;;;;21.09;59.99;98726.71;223499;183;138637;-67
2023/06/29 21:36:44;;;;;;;12.80;7.20;;;;;;;20.97;60.40;98726.69;223456;182;137048;-64
2023/06/29 21:41:47;;;;;;;14.50;7.80;;;;;;;20.88;60.80;98726.86;223369;182;145742;-63
2023/06/29 21:46:51;;;;;;;12.20;7.80;;;;;;;20.77;61.32;98727.67;223409;182;138488;-67
2023/06/29 21:51:55;;;;;;;12.90;7.40;;;;;;;20.67;61.65;98728.84;223446;217;137321;-72
2023/06/29 21:56:58;;;;;;;14.30;7.20;;;;;;;20.57;62.11;98728.61;223488;216;145427;-70
2023/06/29 22:02:02;;;;;;;10.30;6.80;;;;;;;20.49;62.58;98726.89;223466;216;140753;-71
2023/06/29 22:07:06;;;;;;;11.50;7.10;;;;;;;20.47;62.94;98726.64;223394;182;137830;-67
2023/06/29 22:12:13;;;;;;;12.20;6.50;;;;;;;20.47;63.03;98726.06;223424;182;145281;-67
2023/06/29 22:17:17;;;;;;;15.40;7.80;;;;;;;20.50;62.92;98723.24;223417;182;138922;-67
2023/06/29 22:22:20;;;;;;;15.10;7.90;;;;;;;20.41;63.04;98722.20;223744;181;136531;-68
2023/06/29 22:27:23;;;;;;;14.50;6.90;;;;;;;20.30;63.32;98726.57;223687;183;145972;-68
2023/06/29 22:32:27;;;;;;;11.50;7.10;;;;;;;20.21;63.44;98724.88;223629;214;138416;-67
2023/06/29 22:37:30;;;;;;;25.40;7.80;;;;;;;20.13;63.99;98720.20;223521;183;136706;-67
2023/06/29 22:42:34;;;;;;;316.50;219.50;;;;;;;20.03;64.11;98726.05;223803;181;145799;-67
2023/06/29 22:47:37;;;;;;;61.50;14.60;;;;;;;19.98;64.66;98727.46;223487;181;139054;-69
2023/06/29 22:52:42;;;;;;;29.90;8.40;;;;;;;19.91;64.94;98731.88;223665;214;136812;-66
2023/06/29 22:57:45;;;;;;;24.40;7.70;;;;;;;19.85;64.98;98732.85;223672;181;146646;-67
2023/06/29 23:02:48;;;;;;;18.10;7.30;;;;;;;19.83;65.02;98731.29;223463;181;139203;-67
2023/06/29 23:07:52;;;;;;;14.60;7.20;;;;;;;19.78;65.22;98732.48;223602;181;137295;-67
2023/06/29 23:12:56;;;;;;;13.90;6.80;;;;;;;19.76;64.65;98727.20;223623;181;146090;-66
2023/06/29 23:17:59;;;;;;;12.70;6.50;;;;;;;19.82;64.04;98722.52;223560;181;138715;-68
2023/06/29 23:23:03;;;;;;;18.00;6.90;;;;;;;19.87;64.01;98723.07;223589;180;136777;-63
2023/06/29 23:28:06;;;;;;;13.10;6.70;;;;;;;19.78;64.39;98722.20;223804;214;145065;-67
2023/06/29 23:33:09;;;;;;;19.50;7.20;;;;;;;19.66;64.95;98723.73;223640;181;139907;-66
2023/06/29 23:38:13;;;;;;;34.20;8.70;;;;;;;19.55;65.30;98723.55;223632;181;136545;-65
2023/06/29 23:43:16;;;;;;;17.60;7.30;;;;;;;19.45;65.58;98721.73;223753;181;145827;-67
2023/06/29 23:48:19;;;;;;;43.40;8.20;;;;;;;19.35;65.81;98723.66;223453;192;138936;-66
2023/06/29 23:53:22;;;;;;;36.60;8.70;;;;;;;19.32;66.02;98725.25;223742;181;137354;-66
2023/06/29 23:58:26;;;;;;;34.60;8.80;;;;;;;19.26;66.18;98716.86;223717;181;145511;-66
